Time;durP1;ratioP1;P1;durP2;ratioP2;P2;SDS_P1;SDS_P2;PMS_P1;PMS_P2;Temp;Humidity;BMP_temperature;BMP_pressure;BME280_temperature;BME280_humidity;BME280_pressure;Samples;Min_cycle;Max_cycle;Signal;HPM_P1;HPM_P2
2023/06/03 00:00:50;;;;;;;;;2.00;2.00;;;;;;;;5056221;28;45300;-83
2023/06/03 00:03:16;;;;;;;;;5.00;3.00;;;;;;;;5056213;28;45439;-82
2023/06/03 00:05:41;;;;;;;;;6.50;3.50;;;;;;;;5055770;28;45463;-84
2023/06/03 00:08:07;;;;;;;;;3.75;3.50;;;;;;;;5056313;28;46599;-84
2023/06/03 00:10:32;;;;;;;;;6.00;3.00;;;;;;;;5056311;28;45314;-83
2023/06/03 00:12:57;;;;;;;;;3.67;3.33;;;;;;;;5056437;28;45296;-83
2023/06/03 00:15:22;;;;;;;;;4.67;4.00;;;;;;;;5056341;28;45352;-83
2023/06/03 00:17:48;;;;;;;;;6.00;2.67;;;;;;;;5038124;28;47289;-84
2023/06/03 00:20:13;;;;;;;;;4.00;3.00;;;;;;;;5056091;28;45303;-84
2023/06/03 00:22:39;;;;;;;;;5.75;5.00;;;;;;;;5056473;28;45417;-84
2023/06/03 00:25:07;;;;;;;;;4.25;3.00;;;;;;;;5056450;28;45403;-84
2023/06/03 00:27:32;;;;;;;;;3.00;3.00;;;;;;;;5056010;28;46685;-84
2023/06/03 00:29:57;;;;;;;;;10.33;4.00;;;;;;;;5037910;28;45401;-83
2023/06/03 00:32:22;;;;;;;;;7.33;2.00;;;;;;;;5056408;28;45446;-84
2023/06/03 00:34:48;;;;;;;;;4.33;4.00;;;;;;;;5055570;28;45372;-84
2023/06/03 00:37:13;;;;;;;;;5.00;3.00;;;;;;;;5055867;28;46374;-83
2023/06/03 00:39:38;;;;;;;;;5.00;3.67;;;;;;;;5055265;28;45356;-84
2023/06/03 00:42:03;;;;;;;;;5.00;2.67;;;;;;;;5056111;28;45426;-84
2023/06/03 00:44:28;;;;;;;;;7.00;3.25;;;;;;;;5056071;28;45423;-84
2023/06/03 00:46:54;;;;;;;;;4.00;4.00;;;;;;;;5056028;28;46447;-84
2023/06/03 00:49:19;;;;;;;;;6.00;4.75;;;;;;;;5055345;28;46020;-84
2023/06/03 00:51:45;;;;;;;;;4.50;4.50;;;;;;;;5056054;28;45283;-84
2023/06/03 00:54:10;;;;;;;;;3.25;3.00;;;;;;;;5055758;28;45375;-84
2023/06/03 00:56:41;;;;;;;;;5.75;4.75;;;;;;;;5055746;28;46943;-84
2023/06/03 00:59:06;;;;;;;;;6.25;4.25;;;;;;;;5055627;28;45383;-84
2023/06/03 01:01:31;;;;;;;;;5.67;4.00;;;;;;;;5055921;28;45420;-84
2023/06/03 01:03:56;;;;;;;;;11.33;5.33;;;;;;;;5055382;28;45379;-84
2023/06/03 01:06:27;;;;;;;;;4.00;4.00;;;;;;;;5055708;28;45429;-84
2023/06/03 01:08:56;;;;;;;;;3.75;2.50;;;;;;;;5055639;28;45346;-84
2023/06/03 01:11:41;;;;;;;;;3.50;3.50;;;;;;;;5055598;28;45427;-84
2023/06/03 01:14:33;;;;;;;;;6.00;4.75;;;;;;;;5054903;28;45391;-84
2023/06/03 01:16:59;;;;;;;;;3.00;3.00;;;;;;;;5051929;28;46304;-84
2023/06/03 01:19:38;;;;;;;;;12.25;4.00;;;;;;;;5055303;28;45319;-84
2023/06/03 01:22:03;;;;;;;;;4.50;4.00;;;;;;;;5055696;28;45313;-84
2023/06/03 01:24:32;;;;;;;;;6.75;4.75;;;;;;;;5055504;28;45434;-83
2023/06/03 01:26:57;;;;;;;;;4.00;3.75;;;;;;;;5055252;28;47472;-84
2023/06/03 01:29:23;;;;;;;;;7.67;4.00;;;;;;;;5055499;28;45404;-84
2023/06/03 01:31:48;;;;;;;;;8.75;3.75;;;;;;;;5055072;28;45746;-84
2023/06/03 01:34:13;;;;;;;;;7.75;5.00;;;;;;;;5055417;28;45482;-84
2023/06/03 01:36:38;;;;;;;;;5.25;4.00;;;;;;;;5055001;28;46502;-84
2023/06/03 01:39:04;;;;;;;;;5.00;4.00;;;;;;;;5055215;28;45359;-84
2023/06/03 01:41:31;;;;;;;;;11.00;6.00;;;;;;;;5055408;28;45358;-84
2023/06/03 01:43:57;;;;;;;;;5.00;5.00;;;;;;;;5055247;28;45495;-84
2023/06/03 01:46:22;;;;;;;;;8.75;4.25;;;;;;;;5054648;28;46238;-84
2023/06/03 01:48:47;;;;;;;;;4.25;4.00;;;;;;;;5055247;28;45575;-84
2023/06/03 01:51:13;;;;;;;;;6.67;5.00;;;;;;;;5058860;28;45346;-84
2023/06/03 01:53:38;;;;;;;;;4.33;4.33;;;;;;;;5058711;28;45360;-84
2023/06/03 01:56:03;;;;;;;;;4.00;4.00;;;;;;;;5058646;28;46161;-84
2023/06/03 01:58:28;;;;;;;;;8.50;5.00;;;;;;;;5058399;28;45281;-83
2023/06/03 02:00:54;;;;;;;;;7.33;4.33;;;;;;;;5058251;28;45407;-84
2023/06/03 02:03:19;;;;;;;;;3.00;3.00;;;;;;;;5058574;28;45318;-84
2023/06/03 02:05:45;;;;;;;;;3.75;3.50;;;;;;;;5058206;28;47228;-84
2023/06/03 02:08:10;;;;;;;;;2.00;2.00;;;;;;;;5058260;28;45389;-84
2023/06/03 02:10:36;;;;;;;;;3.50;3.50;;;;;;;;5058430;28;45356;-84
2023/06/03 02:13:01;;;;;;;;;4.00;3.50;;;;;;;;5058155;28;45705;-84
2023/06/03 02:15:26;;;;;;;;;4.33;4.33;;;;;;;;5057825;28;46276;-84
2023/06/03 02:17:51;;;;;;;;;7.00;5.67;;;;;;;;5058281;28;45460;-83
2023/06/03 02:20:17;;;;;;;;;4.67;4.67;;;;;;;;5058226;28;45458;-84
2023/06/03 02:22:42;;;;;;;;;6.75;3.50;;;;;;;;5058317;28;45312;-84
2023/06/03 02:25:08;;;;;;;;;9.33;4.67;;;;;;;;5058058;28;45392;-84
2023/06/03 02:27:33;;;;;;;;;8.00;5.25;;;;;;;;5058010;28;45284;-84
2023/06/03 02:29:58;;;;;;;;;7.00;3.00;;;;;;;;5057834;28;45339;-84
2023/06/03 02:32:24;;;;;;;;;6.00;4.33;;;;;;;;5058100;28;45204;-84
2023/06/03 02:34:50;;;;;;;;;6.00;3.00;;;;;;;;5057689;28;47137;-84
2023/06/03 02:37:15;;;;;;;;;5.50;4.00;;;;;;;;5057704;28;45416;-84
2023/06/03 02:39:41;;;;;;;;;5.75;4.00;;;;;;;;5057779;28;45331;-84
2023/06/03 02:42:06;;;;;;;;;9.75;5.00;;;;;;;;5058003;28;45408;-84
2023/06/03 02:44:32;;;;;;;;;13.25;5.50;;;;;;;;5057351;28;47067;-84
2023/06/03 02:46:57;;;;;;;;;9.75;4.50;;;;;;;;5057886;28;45437;-86
2023/06/03 02:49:22;;;;;;;;;5.00;4.00;;;;;;;;5039846;28;45408;-83
2023/06/03 02:51:47;;;;;;;;;5.67;4.00;;;;;;;;5057777;28;45273;-83
2023/06/03 02:54:12;;;;;;;;;7.33;5.00;;;;;;;;5057538;28;46019;-83
2023/06/03 02:56:38;;;;;;;;;7.67;7.00;;;;;;;;5057808;28;45640;-83
2023/06/03 02:59:03;;;;;;;;;10.25;4.50;;;;;;;;5057189;28;45554;-83
2023/06/03 03:01:28;;;;;;;;;6.00;4.00;;;;;;;;5057108;28;45538;-83
2023/06/03 03:03:54;;;;;;;;;5.00;5.00;;;;;;;;5057226;28;46240;-83
2023/06/03 03:06:24;;;;;;;;;1.00;0.00;;;;;;;;5039404;28;45385;-83
2023/06/03 03:08:50;;;;;;;;;3.50;3.00;;;;;;;;5057666;28;45363;-83
2023/06/03 03:11:16;;;;;;;;;3.50;3.25;;;;;;;;5057481;28;45637;-83
2023/06/03 03:13:41;;;;;;;;;10.50;6.25;;;;;;;;5056770;28;46309;-83
2023/06/03 03:16:06;;;;;;;;;9.50;5.00;;;;;;;;5039062;28;45349;-84
2023/06/03 03:18:32;;;;;;;;;5.25;4.75;;;;;;;;5057416;28;45284;-83
2023/06/03 03:20:57;;;;;;;;;4.00;4.00;;;;;;;;5057268;28;45276;-83
2023/06/03 03:23:22;;;;;;;;;5.67;5.00;;;;;;;;5057098;28;45857;-83
2023/06/03 03:25:47;;;;;;;;;6.67;4.00;;;;;;;;5057119;28;45431;-83
2023/06/03 03:28:13;;;;;;;;;9.67;4.67;;;;;;;;5056920;28;45269;-83
2023/06/03 03:30:38;;;;;;;;;6.00;3.00;;;;;;;;5056893;28;45545;-83
2023/06/03 03:33:03;;;;;;;;;6.00;4.67;;;;;;;;5057053;28;45384;-83
2023/06/03 03:35:29;;;;;;;;;7.25;5.25;;;;;;;;5056572;28;45336;-83
2023/06/03 03:38:03;;;;;;;;;8.50;5.25;;;;;;;;5056913;28;45383;-83
2023/06/03 03:40:32;;;;;;;;;6.00;6.00;;;;;;;;5057110;28;45480;-83
2023/06/03 03:42:58;;;;;;;;;5.50;2.50;;;;;;;;5056485;28;45737;-83
2023/06/03 03:45:28;;;;;;;;;5.50;4.50;;;;;;;;5056854;28;45840;-83
2023/06/03 03:47:59;;;;;;;;;4.50;4.00;;;;;;;;5038692;28;45361;-83
2023/06/03 03:50:43;;;;;;;;;6.50;4.75;;;;;;;;5056934;28;45347;-83
2023/06/03 03:53:09;;;;;;;;;4.50;4.50;;;;;;;;5056584;28;47400;-83
2023/06/03 03:55:54;;;;;;;;;6.50;4.25;;;;;;;;5056732;28;45360;-83
2023/06/03 03:58:19;;;;;;;;;9.75;5.00;;;;;;;;5056324;28;45372;-83
2023/06/03 04:00:44;;;;;;;;;5.00;5.00;;;;;;;;5056835;28;45281;-83
2023/06/03 04:03:11;;;;;;;;;5.00;4.00;;;;;;;;5056291;28;47201;-83
2023/06/03 04:05:36;;;;;;;;;5.00;4.00;;;;;;;;5056413;28;45359;-83
2023/06/03 04:08:02;;;;;;;;;10.00;4.33;;;;;;;;5056577;28;45518;-83
2023/06/03 04:10:28;;;;;;;;;5.50;4.00;;;;;;;;5056544;28;45369;-83
2023/06/03 04:12:53;;;;;;;;;10.67;4.67;;;;;;;;5054998;28;45465;-83
2023/06/03 04:15:24;;;;;;;;;8.33;6.67;;;;;;;;5056376;28;45585;-82
2023/06/03 04:17:50;;;;;;;;;8.50;5.75;;;;;;;;5056457;28;45375;-83
2023/06/03 04:20:31;;;;;;;;;5.50;5.50;;;;;;;;5056345;28;45441;-83
2023/06/03 04:22:56;;;;;;;;;12.00;7.25;;;;;;;;5056118;28;47204;-82
2023/06/03 04:25:23;;;;;;;;;11.00;8.33;;;;;;;;5055998;28;45379;-83
2023/06/03 04:27:48;;;;;;;;;14.50;7.50;;;;;;;;5056070;28;45307;-83
2023/06/03 04:30:13;;;;;;;;;10.33;7.33;;;;;;;;5056506;28;45351;-83
2023/06/03 04:32:39;;;;;;;;;10.00;8.67;;;;;;;;5056222;28;45473;-83
2023/06/03 04:35:04;;;;;;;;;17.00;11.33;;;;;;;;5055960;28;45566;-84
2023/06/03 04:37:30;;;;;;;;;11.50;7.50;;;;;;;;5054985;28;45428;-83
2023/06/03 04:39:58;;;;;;;;;12.00;8.75;;;;;;;;5055546;28;45420;-83
2023/06/03 04:42:26;;;;;;;;;17.00;9.00;;;;;;;;5056084;28;46955;-84
2023/06/03 04:44:51;;;;;;;;;9.00;9.00;;;;;;;;5056047;28;45882;-83
2023/06/03 04:47:17;;;;;;;;;10.67;8.67;;;;;;;;5056189;28;45303;-84
2023/06/03 04:49:45;;;;;;;;;5.75;4.75;;;;;;;;5056039;28;45331;-84
2023/06/03 04:52:10;;;;;;;;;6.25;6.00;;;;;;;;5055718;28;46271;-82
2023/06/03 04:54:36;;;;;;;;;6.00;2.00;;;;;;;;5055585;28;45380;-82
2023/06/03 04:57:01;;;;;;;;;9.00;4.75;;;;;;;;5056010;28;45413;-85
2023/06/03 04:59:26;;;;;;;;;11.25;6.25;;;;;;;;5055868;28;45312;-82
2023/06/03 05:01:52;;;;;;;;;9.33;4.67;;;;;;;;5055743;28;46293;-82
2023/06/03 05:04:19;;;;;;;;;5.67;4.00;;;;;;;;5055693;28;45538;-82
2023/06/03 05:06:45;;;;;;;;;11.00;5.00;;;;;;;;5055878;28;45388;-82
2023/06/03 05:09:10;;;;;;;;;9.25;6.00;;;;;;;;5055261;28;45347;-82
2023/06/03 05:11:36;;;;;;;;;4.50;4.50;;;;;;;;5055634;28;46496;-82
2023/06/03 05:14:01;;;;;;;;;8.00;4.33;;;;;;;;5055571;28;45374;-82
2023/06/03 05:16:26;;;;;;;;;6.67;4.67;;;;;;;;5055854;28;45402;-82
2023/06/03 05:18:51;;;;;;;;;3.00;3.00;;;;;;;;5055688;28;45381;-83
2023/06/03 05:21:19;;;;;;;;;9.33;6.00;;;;;;;;5055469;28;45450;-83
2023/06/03 05:23:44;;;;;;;;;10.00;5.00;;;;;;;;5055371;28;45835;-83
2023/06/03 05:26:10;;;;;;;;;8.25;5.75;;;;;;;;5059219;28;45242;-82
2023/06/03 05:28:35;;;;;;;;;6.00;6.00;;;;;;;;5059237;28;45387;-83
2023/06/03 05:31:00;;;;;;;;;5.50;3.75;;;;;;;;5058979;28;46557;-83
2023/06/03 05:33:29;;;;;;;;;6.00;4.00;;;;;;;;5059167;28;45320;-83
2023/06/03 05:35:55;;;;;;;;;9.25;6.00;;;;;;;;5058807;28;45305;-82
2023/06/03 05:38:20;;;;;;;;;5.25;3.75;;;;;;;;5058706;28;45387;-83
2023/06/03 05:40:46;;;;;;;;;5.50;4.50;;;;;;;;5058796;28;46089;-83
2023/06/03 05:43:12;;;;;;;;;9.25;4.75;;;;;;;;5058878;28;45915;-83
2023/06/03 05:45:37;;;;;;;;;10.67;5.00;;;;;;;;5059062;28;45450;-83
2023/06/03 05:48:02;;;;;;;;;5.00;3.00;;;;;;;;5059004;28;45366;-84
2023/06/03 05:50:27;;;;;;;;;5.33;5.00;;;;;;;;5058772;28;45438;-83
2023/06/03 05:52:55;;;;;;;;;10.33;5.33;;;;;;;;5058341;28;45400;-83
2023/06/03 05:55:20;;;;;;;;;10.50;4.50;;;;;;;;5058796;28;45367;-83
2023/06/03 05:57:45;;;;;;;;;11.33;5.00;;;;;;;;5058911;28;45331;-83
2023/06/03 06:00:10;;;;;;;;;5.00;5.00;;;;;;;;5058618;28;46206;-83
2023/06/03 06:02:36;;;;;;;;;6.25;4.75;;;;;;;;5058442;28;45438;-83
2023/06/03 06:05:01;;;;;;;;;4.00;4.00;;;;;;;;5058634;28;45435;-83
2023/06/03 06:07:26;;;;;;;;;5.67;4.00;;;;;;;;5058287;28;45364;-83
2023/06/03 06:09:51;;;;;;;;;4.33;3.33;;;;;;;;5058347;28;46254;-83
2023/06/03 06:12:16;;;;;;;;;5.33;4.00;;;;;;;;5040387;28;45822;-83
2023/06/03 06:14:42;;;;;;;;;5.75;5.00;;;;;;;;5058442;28;45849;-83
2023/06/03 06:17:07;;;;;;;;;5.00;5.00;;;;;;;;5058344;28;45431;-84
2023/06/03 06:19:34;;;;;;;;;4.00;4.00;;;;;;;;5058221;28;47290;-83
2023/06/03 06:21:59;;;;;;;;;4.50;2.50;;;;;;;;5057991;28;45888;-83
2023/06/03 06:24:25;;;;;;;;;6.00;5.50;;;;;;;;5058429;28;45477;-83
2023/06/03 06:26:51;;;;;;;;;5.00;4.00;;;;;;;;5040266;28;45481;-83
2023/06/03 06:29:16;;;;;;;;;7.00;2.50;;;;;;;;5057881;28;46446;-83
2023/06/03 06:31:43;;;;;;;;;5.33;4.33;;;;;;;;5058270;28;45323;-83
2023/06/03 06:34:09;;;;;;;;;9.75;4.75;;;;;;;;5058098;28;45454;-83
2023/06/03 06:36:49;;;;;;;;;8.75;5.00;;;;;;;;5055296;28;45536;-83
2023/06/03 06:39:32;;;;;;;;;7.00;3.50;;;;;;;;5057837;28;47047;-83
2023/06/03 06:42:11;;;;;;;;;5.25;4.00;;;;;;;;5057959;28;45811;-83
2023/06/03 06:44:46;;;;;;;;;6.25;5.25;;;;;;;;5058188;28;45365;-84
2023/06/03 06:47:12;;;;;;;;;5.25;4.00;;;;;;;;5057985;28;45392;-84
2023/06/03 06:49:38;;;;;;;;;6.00;6.00;;;;;;;;5057716;28;47009;-84
2023/06/03 06:52:03;;;;;;;;;6.67;5.00;;;;;;;;5057411;28;45462;-84
2023/06/03 06:54:28;;;;;;;;;5.50;3.00;;;;;;;;5057824;28;45284;-83
2023/06/03 06:56:54;;;;;;;;;5.00;5.00;;;;;;;;5057935;28;45376;-84
2023/06/03 06:59:19;;;;;;;;;5.67;4.67;;;;;;;;5057507;28;46290;-84
2023/06/03 07:01:45;;;;;;;;;6.75;4.00;;;;;;;;5057584;28;45446;-83
2023/06/03 07:04:10;;;;;;;;;6.00;4.00;;;;;;;;5057758;28;45371;-84
2023/06/03 07:06:36;;;;;;;;;7.25;4.25;;;;;;;;5057190;28;45324;-84
2023/06/03 07:09:01;;;;;;;;;9.00;6.00;;;;;;;;5057466;28;46116;-84
2023/06/03 07:11:27;;;;;;;;;5.75;4.00;;;;;;;;5057566;28;45304;-84
2023/06/03 07:13:52;;;;;;;;;4.50;3.00;;;;;;;;5057392;28;45379;-84
2023/06/03 07:16:17;;;;;;;;;10.75;4.75;;;;;;;;5057444;28;45342;-84
2023/06/03 07:18:42;;;;;;;;;9.00;5.00;;;;;;;;5057289;28;45454;-84
2023/06/03 07:21:08;;;;;;;;;5.33;4.00;;;;;;;;5056668;28;45903;-84
2023/06/03 07:23:33;;;;;;;;;7.67;5.33;;;;;;;;5057582;28;45265;-84
2023/06/03 07:25:58;;;;;;;;;9.50;4.75;;;;;;;;5057295;28;45352;-84
2023/06/03 07:28:31;;;;;;;;;7.00;4.00;;;;;;;;5057106;28;45258;-84
2023/06/03 07:30:58;;;;;;;;;7.00;3.00;;;;;;;;5057325;28;45887;-84
2023/06/03 07:33:34;;;;;;;;;5.50;3.75;;;;;;;;5057337;28;45417;-84
2023/06/03 07:36:01;;;;;;;;;3.75;2.75;;;;;;;;5056670;28;45465;-84
2023/06/03 07:38:38;;;;;;;;;7.00;4.00;;;;;;;;5056915;28;47077;-84
2023/06/03 07:41:04;;;;;;;;;4.00;4.00;;;;;;;;5056950;28;45657;-84
2023/06/03 07:43:29;;;;;;;;;6.00;4.25;;;;;;;;5057026;28;45477;-84
2023/06/03 07:45:55;;;;;;;;;6.67;4.00;;;;;;;;5057123;28;45358;-84
2023/06/03 07:48:20;;;;;;;;;5.00;3.00;;;;;;;;5056601;28;47250;-84
2023/06/03 07:50:46;;;;;;;;;5.50;4.00;;;;;;;;5056515;28;45232;-82
2023/06/03 07:53:16;;;;;;;;;5.50;3.75;;;;;;;;5038859;28;45538;-82
2023/06/03 07:55:45;;;;;;;;;4.00;3.50;;;;;;;;5057039;28;45403;-83
2023/06/03 07:58:11;;;;;;;;;6.00;3.75;;;;;;;;5056660;28;47014;-82
2023/06/03 08:00:38;;;;;;;;;5.75;3.50;;;;;;;;5056815;28;45427;-82
2023/06/03 08:03:04;;;;;;;;;6.00;3.00;;;;;;;;5056513;28;45323;-82
2023/06/03 08:05:41;;;;;;;;;3.25;3.25;;;;;;;;5038734;28;45445;-82
2023/06/03 08:08:09;;;;;;;;;5.00;3.75;;;;;;;;5056491;28;46251;-82
2023/06/03 08:10:35;;;;;;;;;8.00;3.00;;;;;;;;5056757;28;45364;-82
2023/06/03 08:13:01;;;;;;;;;3.00;3.00;;;;;;;;5056596;28;45368;-82
2023/06/03 08:15:27;;;;;;;;;6.75;5.00;;;;;;;;5056545;28;45358;-82
2023/06/03 08:17:53;;;;;;;;;4.25;4.25;;;;;;;;5055925;28;46919;-82
2023/06/03 08:20:28;;;;;;;;;5.25;3.50;;;;;;;;5056231;28;45524;-82
2023/06/03 08:22:54;;;;;;;;;4.00;3.25;;;;;;;;5056437;28;45518;-83
2023/06/03 08:25:19;;;;;;;;;6.00;2.25;;;;;;;;5055212;28;45394;-81
2023/06/03 08:27:45;;;;;;;;;5.50;3.25;;;;;;;;5055548;28;46911;-87
2023/06/03 08:30:12;;;;;;;;;6.00;4.00;;;;;;;;5057376;28;45360;-92
2023/06/03 08:32:38;;;;;;;;;4.75;4.00;;;;;;;;5056651;28;45432;-89
2023/06/03 08:35:04;;;;;;;;;4.50;3.00;;;;;;;;5057013;28;45478;-87
2023/06/03 08:37:30;;;;;;;;;4.50;3.00;;;;;;;;5056982;28;45279;-93
2023/06/03 08:39:55;;;;;;;;;7.25;3.75;;;;;;;;5057408;28;45259;-96
2023/06/03 08:42:28;;;;;;;;;4.00;3.00;;;;;;;;5057000;28;45276;-90
2023/06/03 08:44:59;;;;;;;;;3.00;3.00;;;;;;;;5052464;28;45495;-95
2023/06/03 08:47:43;;;;;;;;;2.50;2.50;;;;;;;;5040804;28;47098;-94
2023/06/03 08:50:15;;;;;;;;;6.75;2.25;;;;;;;;5057754;28;45580;-90
2023/06/03 08:52:42;;;;;;;;;3.00;3.00;;;;;;;;5058649;28;45342;-92
2023/06/03 08:55:11;;;;;;;;;3.75;3.00;;;;;;;;5057457;28;45403;-90
2023/06/03 08:57:49;;;;;;;;;4.00;3.00;;;;;;;;5056350;28;46504;-85
2023/06/03 09:00:17;;;;;;;;;4.00;3.75;;;;;;;;5054218;28;45730;-89
2023/06/03 09:02:42;;;;;;;;;5.25;2.00;;;;;;;;5056081;28;45396;-91
2023/06/03 09:05:08;;;;;;;;;4.75;2.25;;;;;;;;5056042;28;45313;-84
2023/06/03 09:07:33;;;;;;;;;3.75;3.00;;;;;;;;5055590;28;46337;-82
2023/06/03 09:10:00;;;;;;;;;3.00;2.75;;;;;;;;5054946;28;45400;-83
2023/06/03 09:12:26;;;;;;;;;5.50;2.75;;;;;;;;5055045;28;45352;-83
2023/06/03 09:14:52;;;;;;;;;5.25;2.25;;;;;;;;5055600;28;45534;-82
2023/06/03 09:17:18;;;;;;;;;3.00;3.00;;;;;;;;5054742;28;46338;-82
2023/06/03 09:19:44;;;;;;;;;5.75;2.75;;;;;;;;5055657;28;45319;-81
2023/06/03 09:22:10;;;;;;;;;3.25;3.00;;;;;;;;5055369;28;45404;-81
2023/06/03 09:24:35;;;;;;;;;5.75;3.25;;;;;;;;5055233;28;45238;-81
2023/06/03 09:27:00;;;;;;;;;4.67;1.67;;;;;;;;5056107;28;46410;-81
2023/06/03 09:29:25;;;;;;;;;3.50;3.00;;;;;;;;5054866;28;45343;-82
2023/06/03 09:31:51;;;;;;;;;4.00;3.00;;;;;;;;5054293;28;45388;-82
2023/06/03 09:34:16;;;;;;;;;4.00;2.25;;;;;;;;5054748;28;45217;-80
2023/06/03 09:36:46;;;;;;;;;4.50;3.00;;;;;;;;5054727;28;46376;-82
2023/06/03 09:39:16;;;;;;;;;1.00;1.00;;;;;;;;5054561;28;45840;-83
2023/06/03 09:41:41;;;;;;;;;4.75;3.00;;;;;;;;5054376;28;45529;-83
2023/06/03 09:44:08;;;;;;;;;5.00;2.00;;;;;;;;5054977;28;45464;-83
2023/06/03 09:46:34;;;;;;;;;2.00;2.00;;;;;;;;5054473;28;46175;-83
2023/06/03 09:49:12;;;;;;;;;3.00;2.00;;;;;;;;5036665;28;45607;-81
2023/06/03 09:51:41;;;;;;;;;4.75;2.75;;;;;;;;5055165;28;45380;-83
2023/06/03 09:54:11;;;;;;;;;5.00;3.00;;;;;;;;5053354;28;45436;-82
2023/06/03 09:56:37;;;;;;;;;4.00;2.00;;;;;;;;5049928;28;46386;-82
2023/06/03 09:59:17;;;;;;;;;3.00;3.00;;;;;;;;5054065;28;45849;-84
2023/06/03 10:01:45;;;;;;;;;4.25;2.75;;;;;;;;5054984;28;45357;-84
2023/06/03 10:04:10;;;;;;;;;5.00;2.75;;;;;;;;5054555;28;45419;-84
2023/06/03 10:06:36;;;;;;;;;7.00;3.00;;;;;;;;5054643;28;46040;-84
2023/06/03 10:09:22;;;;;;;;;2.50;2.50;;;;;;;;5054422;28;45403;-84
2023/06/03 10:11:48;;;;;;;;;4.25;2.00;;;;;;;;5055608;28;45424;-83
2023/06/03 10:14:15;;;;;;;;;4.50;2.00;;;;;;;;5057990;28;45515;-84
2023/06/03 10:16:40;;;;;;;;;4.25;3.00;;;;;;;;5056723;28;46511;-84
2023/06/03 10:19:05;;;;;;;;;3.33;3.00;;;;;;;;5056847;28;45428;-85
2023/06/03 10:21:31;;;;;;;;;6.67;3.00;;;;;;;;5057416;28;45454;-84
2023/06/03 10:23:57;;;;;;;;;3.00;3.00;;;;;;;;5056742;28;45281;-82
2023/06/03 10:26:23;;;;;;;;;6.25;3.25;;;;;;;;5055948;28;45367;-83
2023/06/03 10:28:49;;;;;;;;;4.00;3.50;;;;;;;;5057276;28;45892;-83
2023/06/03 10:31:15;;;;;;;;;2.50;2.50;;;;;;;;5056725;28;45482;-84
2023/06/03 10:33:40;;;;;;;;;5.50;4.00;;;;;;;;5056503;28;45564;-83
2023/06/03 10:36:06;;;;;;;;;5.00;3.00;;;;;;;;5057111;28;46830;-92
2023/06/03 10:38:34;;;;;;;;;4.25;3.00;;;;;;;;5057726;28;45382;-92
2023/06/03 10:41:00;;;;;;;;;5.00;3.00;;;;;;;;5058153;28;45351;-88
2023/06/03 10:43:26;;;;;;;;;5.00;4.00;;;;;;;;5057594;28;45416;-88
2023/06/03 10:45:53;;;;;;;;;5.25;3.00;;;;;;;;5057631;28;46287;-88
2023/06/03 10:48:21;;;;;;;;;2.25;2.25;;;;;;;;5056581;28;45774;-87
2023/06/03 10:51:00;;;;;;;;;7.00;3.00;;;;;;;;5039970;28;45507;-88
2023/06/03 10:53:26;;;;;;;;;4.75;2.00;;;;;;;;5039088;28;45763;-85
2023/06/03 10:56:10;;;;;;;;;4.00;2.00;;;;;;;;5057353;28;46305;-88
2023/06/03 10:58:37;;;;;;;;;3.50;2.75;;;;;;;;5056131;28;45251;-87
2023/06/03 11:01:05;;;;;;;;;3.75;3.00;;;;;;;;5056552;28;46831;-85
2023/06/03 11:03:34;;;;;;;;;4.50;3.00;;;;;;;;5039035;28;45451;-82
2023/06/03 11:06:18;;;;;;;;;6.25;4.00;;;;;;;;5052997;28;47007;-85
2023/06/03 11:09:04;;;;;;;;;5.25;3.00;;;;;;;;5056843;28;45375;-88
2023/06/03 11:11:42;;;;;;;;;6.00;3.00;;;;;;;;5056857;28;45293;-88
2023/06/03 11:14:07;;;;;;;;;4.00;3.00;;;;;;;;5057059;28;45619;-88
2023/06/03 11:16:51;;;;;;;;;3.50;3.00;;;;;;;;5056299;28;46126;-87
2023/06/03 11:19:31;;;;;;;;;5.75;3.75;;;;;;;;5055305;28;45746;-85
2023/06/03 11:22:10;;;;;;;;;3.75;2.00;;;;;;;;5056609;28;45470;-86
2023/06/03 11:24:38;;;;;;;;;6.00;2.00;;;;;;;;5056437;28;45569;-82
2023/06/03 11:27:09;;;;;;;;;2.00;2.00;;;;;;;;5058043;28;46595;-83
2023/06/03 11:29:43;;;;;;;;;4.00;2.00;;;;;;;;5058151;28;45684;-84
2023/06/03 11:32:12;;;;;;;;;2.25;2.00;;;;;;;;5038713;28;45408;-77
2023/06/03 11:34:37;;;;;;;;;4.00;2.75;;;;;;;;5056773;28;45396;-77
2023/06/03 11:37:03;;;;;;;;;3.00;1.33;;;;;;;;5056730;28;46150;-78
2023/06/03 11:39:48;;;;;;;;;3.00;3.00;;;;;;;;5056520;28;45304;-81
2023/06/03 11:42:13;;;;;;;;;2.00;2.00;;;;;;;;5056580;28;45622;-78
2023/06/03 11:44:40;;;;;;;;;3.00;2.00;;;;;;;;5057060;28;45408;-79
2023/06/03 11:47:05;;;;;;;;;3.25;2.00;;;;;;;;5056214;28;46457;-79
2023/06/03 11:49:35;;;;;;;;;2.75;1.00;;;;;;;;5056557;28;45442;-78
2023/06/03 11:52:00;;;;;;;;;4.75;2.25;;;;;;;;5056602;28;45339;-79
2023/06/03 11:54:26;;;;;;;;;4.75;2.75;;;;;;;;5056820;28;45368;-81
2023/06/03 11:56:51;;;;;;;;;2.50;2.50;;;;;;;;5055924;28;45973;-80
2023/06/03 11:59:30;;;;;;;;;2.00;2.00;;;;;;;;5056459;28;45614;-80
2023/06/03 12:02:03;;;;;;;;;5.00;2.25;;;;;;;;5056761;28;45371;-80
2023/06/03 12:04:29;;;;;;;;;5.25;3.50;;;;;;;;5056690;28;45486;-81
2023/06/03 12:06:54;;;;;;;;;2.25;2.00;;;;;;;;5055958;28;46094;-80
2023/06/03 12:09:20;;;;;;;;;4.75;1.75;;;;;;;;5056033;28;45570;-77
2023/06/03 12:11:45;;;;;;;;;5.25;3.75;;;;;;;;5055732;28;45467;-79
2023/06/03 12:14:21;;;;;;;;;3.00;2.50;;;;;;;;5055710;28;45344;-80
2023/06/03 12:16:46;;;;;;;;;1.25;1.25;;;;;;;;5055907;28;46326;-80
2023/06/03 12:19:12;;;;;;;;;3.00;2.33;;;;;;;;5055821;28;45371;-78
2023/06/03 12:21:37;;;;;;;;;2.67;2.67;;;;;;;;5056211;28;45409;-79
2023/06/03 12:24:11;;;;;;;;;2.67;2.00;;;;;;;;5055444;28;45451;-80
2023/06/03 12:26:40;;;;;;;;;2.25;2.25;;;;;;;;5055426;28;46888;-77
2023/06/03 12:29:12;;;;;;;;;2.00;2.00;;;;;;;;5055950;28;45466;-77
2023/06/03 12:31:37;;;;;;;;;2.50;1.50;;;;;;;;5056232;28;45387;-79
2023/06/03 12:34:03;;;;;;;;;3.00;3.00;;;;;;;;5053656;28;45336;-78
2023/06/03 12:36:44;;;;;;;;;2.25;2.25;;;;;;;;5055074;28;45419;-79
2023/06/03 12:39:10;;;;;;;;;3.25;2.00;;;;;;;;5055056;28;45375;-79
2023/06/03 12:41:35;;;;;;;;;2.00;2.00;;;;;;;;5056114;28;45354;-83
2023/06/03 12:44:01;;;;;;;;;3.00;2.00;;;;;;;;5056227;28;45554;-82
2023/06/03 12:46:26;;;;;;;;;3.00;3.00;;;;;;;;5055758;28;46540;-80
2023/06/03 12:48:56;;;;;;;;;2.00;2.00;;;;;;;;5055725;28;45332;-82
2023/06/03 12:51:31;;;;;;;;;4.00;2.00;;;;;;;;5055555;28;45359;-78
2023/06/03 12:53:57;;;;;;;;;1.25;1.25;;;;;;;;5055773;28;45305;-90
2023/06/03 12:56:23;;;;;;;;;6.25;2.25;;;;;;;;5053084;28;45534;-80
2023/06/03 12:58:50;;;;;;;;;2.00;2.00;;;;;;;;5054567;28;45887;-82
2023/06/03 13:01:15;;;;;;;;;5.00;3.00;;;;;;;;5055406;28;45296;-82
2023/06/03 13:03:40;;;;;;;;;3.00;3.00;;;;;;;;5055269;28;45400;-80
2023/06/03 13:06:05;;;;;;;;;3.00;3.00;;;;;;;;5054782;28;45940;-79
2023/06/03 13:08:30;;;;;;;;;2.00;2.00;;;;;;;;5054723;28;45479;-80
2023/06/03 13:10:56;;;;;;;;;35.25;20.00;;;;;;;;5055088;28;45663;-81
2023/06/03 13:13:21;;;;;;;;;2.33;2.33;;;;;;;;5055217;28;45382;-80
2023/06/03 13:15:46;;;;;;;;;2.00;2.00;;;;;;;;5054850;28;47285;-80
2023/06/03 13:18:11;;;;;;;;;2.00;2.00;;;;;;;;5055249;28;45594;-81
2023/06/03 13:20:36;;;;;;;;;3.33;2.33;;;;;;;;5054863;28;45428;-80
2023/06/03 13:23:02;;;;;;;;;4.67;3.67;;;;;;;;5054411;28;45333;-80
2023/06/03 13:25:27;;;;;;;;;3.00;3.00;;;;;;;;5054489;28;46191;-84
2023/06/03 13:27:52;;;;;;;;;2.00;2.00;;;;;;;;5050064;28;45648;-81
2023/06/03 13:30:17;;;;;;;;;2.00;1.00;;;;;;;;5046114;28;45684;-82
2023/06/03 13:32:42;;;;;;;;;3.00;1.50;;;;;;;;5046217;28;45456;-81
2023/06/03 13:35:08;;;;;;;;;2.00;2.00;;;;;;;;5040771;28;47233;-85
2023/06/03 13:37:33;;;;;;;;;3.00;3.00;;;;;;;;5033589;28;45724;-78
2023/06/03 13:39:59;;;;;;;;;3.75;2.25;;;;;;;;5054233;28;45540;-80
2023/06/03 13:42:24;;;;;;;;;3.00;3.00;;;;;;;;5053650;28;45538;-80
2023/06/03 13:44:49;;;;;;;;;1.75;1.75;;;;;;;;5053662;28;47379;-80
2023/06/03 13:47:15;;;;;;;;;4.75;0.75;;;;;;;;5056687;28;45340;-81
2023/06/03 13:49:40;;;;;;;;;0.25;0.00;;;;;;;;5057582;28;45523;-80
2023/06/03 13:52:05;;;;;;;;;1.33;0.33;;;;;;;;5056223;28;45484;-80
2023/06/03 13:54:30;;;;;;;;;1.25;0.00;;;;;;;;5057161;28;46071;-79
2023/06/03 13:56:56;;;;;;;;;1.67;1.67;;;;;;;;5057513;28;45313;-80
2023/06/03 13:59:22;;;;;;;;;0.00;0.00;;;;;;;;5057391;28;45730;-80
2023/06/03 14:01:47;;;;;;;;;1.00;1.00;;;;;;;;5056882;28;45459;-80
2023/06/03 14:04:14;;;;;;;;;1.33;1.00;;;;;;;;5057556;28;46288;-80
2023/06/03 14:06:39;;;;;;;;;3.00;2.00;;;;;;;;5056835;28;45919;-80
2023/06/03 14:09:05;;;;;;;;;1.00;1.00;;;;;;;;5057798;28;45303;-80
2023/06/03 14:11:30;;;;;;;;;1.00;1.00;;;;;;;;5056924;28;45447;-83
2023/06/03 14:13:55;;;;;;;;;1.33;1.33;;;;;;;;5057024;28;46321;-82
2023/06/03 14:16:26;;;;;;;;;2.00;0.00;;;;;;;;5057145;28;45459;-81
2023/06/03 14:18:51;;;;;;;;;1.75;0.50;;;;;;;;5057353;28;45364;-81
2023/06/03 14:21:16;;;;;;;;;1.00;1.00;;;;;;;;5064863;28;45398;-81
2023/06/03 14:23:41;;;;;;;;;0.00;0.00;;;;;;;;5049033;28;45500;-82
2023/06/03 14:26:06;;;;;;;;;1.00;0.00;;;;;;;;5057080;28;45417;-81
2023/06/03 14:28:32;;;;;;;;;0.67;0.67;;;;;;;;5057561;28;45222;-81
2023/06/03 14:30:57;;;;;;;;;1.67;1.67;;;;;;;;5057156;28;45402;-82
2023/06/03 14:33:24;;;;;;;;;3.67;2.00;;;;;;;;5056777;28;46090;-82
2023/06/03 14:35:49;;;;;;;;;1.00;1.00;;;;;;;;5056111;28;45382;-82
2023/06/03 14:38:15;;;;;;;;;1.00;1.00;;;;;;;;5057193;28;45316;-82
2023/06/03 14:40:40;;;;;;;;;3.00;2.00;;;;;;;;5056888;28;45363;-81
2023/06/03 14:43:05;;;;;;;;;1.00;0.67;;;;;;;;5057079;28;46127;-82